AirNav   $300 off a Bose A20
 
 1086 users online  

05IL Classic Landings Airport
Bonfield, Illinois, USA

GOING TO BONFIELD?


FAA INFORMATION EFFECTIVE 18 JULY 2019

Location

FAA Identifier: 05IL
Lat/Long: 41-09-36.0000N / 088-01-00.0000W
41-09.600000N / 088-01.000000W
41.1600000 / -88.0166667
(estimated)
Elevation: 635 ft. / 194 m (estimated)
Variation: 01W (1990)
From city: 2 miles NE of BONFIELD, IL
Time zone: UTC -5 (UTC -6 during Standard Time)
Zip code: 60913

Airport Operations

Airport use: Private use. Permission required prior to landing
Activation date: 03/1993
Control tower: no
ARTCC: CHICAGO CENTER
FSS: KANKAKEE FLIGHT SERVICE STATION
Attendance: UNATNDD
Wind indicator: yes
Segmented circle: no

Airport Communications

WX AWOS-3 at IKK (9 nm SE): 128.475 (815-939-4044)

Nearby radio navigation aids

VOR radial/distance  VOR name  Freq  Var
IKKr304/9.1KANKAKEE VOR/DME111.6000E
EONr235/12.1PEOTONE VORTAC113.2002E
JOTr148/26.9JOLIET VOR/DME112.3002E
CGTr222/29.0CHICAGO HEIGHTS VORTAC114.2002E
RBSr009/35.3ROBERTS VOR/DME116.8002E
PNTr055/38.3PONTIAC VOR/DME109.6003E

 
NDB name  Hdg/Dist  Freq  Var  ID
LUKOW329/9.927200EIK .. -.-

Airport Services

Runway Information

Runway 10/28

Dimensions: 3200 x 70 ft. / 975 x 21 m
Surface: turf
RUNWAY 10  RUNWAY 28
Traffic pattern: leftleft
Displaced threshold: 700 ft.675 ft.
Obstructions: none50 ft. trees, 75 ft. from runway

Airport Ownership and Management from official FAA records

Ownership: Privately-owned
Owner: CLASSIC LANDINGS COMM ASSOC
7300 LANDING LANE
BONFIELD, IL 60913
Phone 815-939-3399
Manager: J. D. SLACK
7300 LANDING LANE
BONFIELD, IL 60913
Phone 815-939-3399

Additional Remarks

FOR CD CTC CHICAGO ARTCC AT 630-906-8921.

Instrument Procedures

There are no published instrument procedures at 05IL.

Some nearby airports with instrument procedures:

KIKK - Greater Kankakee Airport (9 nm SE)
C56 - Bult Field Airport (20 nm NE)
C09 - Morris Municipal Airport-James R. Washburn Field (24 nm NW)
KLOT - Lewis University Airport (27 nm N)
KPNT - Pontiac Municipal Airport (31 nm SW)
 
Loc | Ops | Rwys | IFR | FBO | Links
Com | Nav | Svcs | Stats | Notes
Area around 05IL (Classic Landings Airport)
 
Road maps at: MapQuest Bing Google
 
Aerial photo
No photo
 
Sectional chart

 
Airport distance calculator
Flying to Classic Landings Airport? Find the distance to fly.

From to 05IL

Sunrise and sunset
Times for 21-Jul-2019
 Local
(UTC-5)
 Zulu
(UTC)
Morning civil twilight05:0610:06
Sunrise05:3810:38
Sunset20:1801:18
Evening civil twilight20:5101:51

Current date and time
Zulu (UTC)  21-Jul-2019 22:42:33
Local (UTC-5)  21-Jul-2019 17:42:33
 
METAR
KIKK 
9nm SE 
212215Z AUTO 03011KT 10SM OVC011 23/21 A2995 RMK AO2 T02300210
TAF
KGYY 
38nm NE 
212056Z 2121/2218 35009KT 5SM -RA BKN004 OVC025 TEMPO 2121/2123 SCT004 BKN025 FM212300 01015G25KT P6SM SCT020 BKN250 FM220300 02012G20KT P6SM SCT250 FM221500 01015G25KT P6SM SCT250
KMDW 
39nm N 
212056Z 2121/2224 02014G18KT P6SM SCT040 BKN250 FM220200 02011KT P6SM BKN250 FM221500 02012G18KT P6SM SCT100 BKN250 FM221809 02016G22KT P6SM SCT250
KDPA 
47nm N 
212056Z 2121/2218 04013KT P6SM FEW025 SCT035 BKN250 FM220200 01007KT P6SM BKN250 FM221600 02015G20KT P6SM SCT100 BKN250
NOTAMs
Click for the latest NOTAMs
NOTAMs are issued by the DoD/FAA and will open in a separate window not controlled by AirNav.

 

 
 

Would you like to see your business listed on this page?

 If your business provides an interesting product or service to pilots, flight crews, aircraft, or users of the Classic Landings Airport, you should consider listing it here.  To start the listing process, click on the button below
 
Add a business
 

Other Pages about Classic Landings Airport

Update a link
 
Copyright © AirNav, LLC. All rights reserved. Privacy Policy  Contact